Time;durP1;ratioP1;P1;durP2;ratioP2;P2;SDS_P1;SDS_P2;PMS_P1;PMS_P2;Temp;Humidity;BMP_temperature;BMP_pressure;BME280_temperature;BME280_humidity;BME280_pressure;Samples;Min_cycle;Max_cycle;Signal;HPM_P1;HPM_P2
2022/09/06 00:01:16;;;;;;;5.23;4.93;;;19.40;99.90;;;;;;5038107;28;20284;-68
2022/09/06 00:03:42;;;;;;;5.83;5.43;;;19.30;99.90;;;;;;5045187;28;20204;-68
2022/09/06 00:06:14;;;;;;;6.23;5.07;;;19.30;99.90;;;;;;5041929;28;20800;-68
2022/09/06 00:08:41;;;;;;;6.30;5.67;;;19.20;99.90;;;;;;5037570;28;20523;-67
2022/09/06 00:11:07;;;;;;;5.50;5.00;;;19.20;99.90;;;;;;5026208;28;20446;-68
2022/09/06 00:13:33;;;;;;;5.97;5.40;;;19.20;99.90;;;;;;5025007;28;20571;-68
2022/09/06 00:16:07;;;;;;;6.30;5.80;;;19.20;99.90;;;;;;5034155;28;20177;-68
2022/09/06 00:18:33;;;;;;;5.67;5.03;;;19.20;99.90;;;;;;5041306;28;21032;-68
2022/09/06 00:20:58;;;;;;;5.90;5.27;;;19.20;99.90;;;;;;5026378;28;20561;-68
2022/09/06 00:23:24;;;;;;;6.60;6.00;;;19.30;99.90;;;;;;5029548;28;20229;-68
2022/09/06 00:25:49;;;;;;;5.93;5.20;;;19.10;99.90;;;;;;5030148;28;20174;-68
2022/09/06 00:28:15;;;;;;;6.23;5.63;;;19.10;99.90;;;;;;5029491;28;20659;-68
2022/09/06 00:30:40;;;;;;;5.60;5.17;;;19.10;99.90;;;;;;5027058;28;20179;-68
2022/09/06 00:33:06;;;;;;;6.23;5.63;;;19.10;99.90;;;;;;5019759;28;20424;-68
2022/09/06 00:35:32;;;;;;;5.70;5.30;;;19.00;99.90;;;;;;5013663;28;20190;-68
2022/09/06 00:37:59;;;;;;;5.63;5.23;;;19.00;99.90;;;;;;5018536;28;20571;-67
2022/09/06 00:40:28;;;;;;;6.33;5.20;;;19.00;99.90;;;;;;5027437;28;20210;-67
2022/09/06 00:42:54;;;;;;;6.87;5.77;;;19.00;99.90;;;;;;5027847;28;20473;-68
2022/09/06 00:45:20;;;;;;;7.07;6.47;;;18.80;99.90;;;;;;5031626;28;20949;-68
2022/09/06 00:47:45;;;;;;;6.73;6.13;;;18.80;99.90;;;;;;5026737;28;20436;-67
2022/09/06 00:50:14;;;;;;;6.93;6.23;;;18.80;99.90;;;;;;5036720;28;20609;-68
2022/09/06 00:52:41;;;;;;;6.33;5.87;;;18.80;99.90;;;;;;5025480;28;20209;-68
2022/09/06 00:55:07;;;;;;;6.30;5.80;;;18.80;99.90;;;;;;5023014;28;20517;-67
2022/09/06 00:57:33;;;;;;;6.50;5.83;;;18.80;99.90;;;;;;5021816;28;20490;-68
2022/09/06 01:00:00;;;;;;;6.40;5.90;;;18.80;99.90;;;;;;5022452;28;20437;-67
2022/09/06 01:02:26;;;;;;;6.20;5.70;;;18.80;99.90;;;;;;5026743;28;20495;-67
2022/09/06 01:04:52;;;;;;;6.90;6.27;;;18.90;99.90;;;;;;5028708;28;21009;-68
2022/09/06 01:07:28;;;;;;;6.63;6.03;;;18.90;99.90;;;;;;5026711;28;20186;-68
2022/09/06 01:10:15;;;;;;;6.40;5.90;;;18.90;99.90;;;;;;5025043;28;20260;-68
2022/09/06 01:13:19;;;;;;;6.37;5.90;;;18.90;99.90;;;;;;5024766;28;20517;-68
2022/09/06 01:16:16;;;;;;;5.90;5.50;;;18.80;99.90;;;;;;5038563;28;20523;-68
2022/09/06 01:19:09;;;;;;;7.00;5.60;;;18.80;99.90;;;;;;5018413;28;20437;-67
2022/09/06 01:21:48;;;;;;;7.00;6.03;;;18.90;99.90;;;;;;5027688;28;20439;-67
2022/09/06 01:24:38;;;;;;;6.37;5.83;;;19.00;99.90;;;;;;5023312;28;20468;-68
2022/09/06 01:27:19;;;;;;;5.43;5.03;;;19.00;99.90;;;;;;5026875;28;20961;-68
2022/09/06 01:29:55;;;;;;;6.30;5.73;;;19.00;99.90;;;;;;5029209;28;20836;-68
2022/09/06 01:32:20;;;;;;;6.90;6.20;;;19.00;99.90;;;;;;5022488;28;20452;-68
2022/09/06 01:35:01;;;;;;;6.50;6.00;;;19.00;99.90;;;;;;5021754;28;20450;-68
2022/09/06 01:37:27;;;;;;;5.93;5.53;;;19.00;99.90;;;;;;5028351;28;20558;-68
2022/09/06 01:39:52;;;;;;;6.40;5.90;;;18.90;99.90;;;;;;5016123;28;20524;-68
2022/09/06 01:42:30;;;;;;;6.90;6.20;;;18.90;99.90;;;;;;5020975;28;20560;-68
2022/09/06 01:45:02;;;;;;;6.20;5.80;;;18.80;99.90;;;;;;5024872;28;20253;-68
2022/09/06 01:47:58;;;;;;;6.60;5.87;;;18.80;99.90;;;;;;5017368;28;20851;-68
2022/09/06 01:50:42;;;;;;;5.60;5.20;;;18.70;99.90;;;;;;5015588;28;20473;-68
2022/09/06 01:53:59;;;;;;;5.63;5.20;;;18.70;99.90;;;;;;5019133;28;20453;-68
2022/09/06 01:56:48;;;;;;;5.50;5.10;;;18.70;99.90;;;;;;4995899;28;20476;-68
2022/09/06 01:59:14;;;;;;;5.90;5.50;;;18.60;99.90;;;;;;5023115;28;20446;-68
2022/09/06 02:02:16;;;;;;;6.10;5.67;;;18.50;99.90;;;;;;5028102;28;20490;-68
2022/09/06 02:04:50;;;;;;;6.27;5.77;;;18.40;99.90;;;;;;5025635;28;20182;-68
2022/09/06 02:07:24;;;;;;;11.60;6.53;;;18.40;99.90;;;;;;5015009;28;20426;-68
2022/09/06 02:09:54;;;;;;;6.10;5.60;;;18.40;99.90;;;;;;5029428;28;20512;-68
2022/09/06 02:12:23;;;;;;;6.07;5.67;;;18.50;99.90;;;;;;5020473;28;20474;-68
2022/09/06 02:14:55;;;;;;;6.60;6.10;;;18.50;99.90;;;;;;5025290;28;20448;-68
2022/09/06 02:17:26;;;;;;;7.67;5.37;;;18.60;99.90;;;;;;5025292;28;20477;-68
2022/09/06 02:19:59;;;;;;;6.83;6.00;;;18.90;99.90;;;;;;5026849;28;20476;-68
2022/09/06 02:22:30;;;;;;;5.70;5.13;;;18.50;99.90;;;;;;5025154;28;20504;-68
2022/09/06 02:24:57;;;;;;;5.77;5.27;;;18.70;99.90;;;;;;5020805;28;20476;-68
2022/09/06 02:27:23;;;;;;;6.10;5.60;;;18.80;99.90;;;;;;5021901;28;20447;-68
2022/09/06 02:29:48;;;;;;;6.20;5.67;;;18.90;99.90;;;;;;5027866;28;20527;-68
2022/09/06 02:32:19;;;;;;;6.50;5.90;;;19.00;99.90;;;;;;5027367;28;20753;-68
2022/09/06 02:34:45;;;;;;;6.10;5.60;;;19.10;99.90;;;;;;5024440;28;20198;-68
2022/09/06 02:37:15;;;;;;;5.70;5.30;;;19.20;99.90;;;;;;5025899;28;20909;-68
2022/09/06 02:39:40;;;;;;;9.47;6.13;;;19.30;99.90;;;;;;5026735;28;20218;-68
2022/09/06 02:42:09;;;;;;;5.47;5.07;;;19.40;99.90;;;;;;5028097;28;20887;-68
2022/09/06 02:44:34;;;;;;;6.33;5.73;;;19.50;99.90;;;;;;5024586;28;20647;-68
2022/09/06 02:47:02;;;;;;;7.00;6.00;;;19.50;99.90;;;;;;5019271;28;20437;-68
2022/09/06 02:49:27;;;;;;;6.23;5.60;;;19.50;99.90;;;;;;5024619;28;20663;-68
2022/09/06 02:51:53;;;;;;;5.57;5.07;;;19.50;99.90;;;;;;5028731;28;20445;-69
2022/09/06 02:54:18;;;;;;;9.70;6.87;;;19.50;99.90;;;;;;5032104;28;20190;-69
2022/09/06 02:56:44;;;;;;;8.40;7.33;;;19.50;99.90;;;;;;5028167;28;20195;-69
2022/09/06 02:59:09;;;;;;;8.13;7.33;;;19.40;99.90;;;;;;5022937;28;20365;-69
2022/09/06 03:01:35;;;;;;;8.17;7.33;;;19.20;99.90;;;;;;5026391;28;20190;-68
2022/09/06 03:04:01;;;;;;;7.00;5.97;;;19.00;99.90;;;;;;5031525;28;20240;-68
2022/09/06 03:06:27;;;;;;;7.60;6.87;;;18.80;99.90;;;;;;5027910;28;20178;-68
2022/09/06 03:08:52;;;;;;;10.70;6.63;;;18.60;99.90;;;;;;5024235;28;20930;-68
2022/09/06 03:11:18;;;;;;;7.80;7.20;;;18.60;99.90;;;;;;5023025;28;20194;-69
2022/09/06 03:13:43;;;;;;;6.60;6.00;;;18.50;99.90;;;;;;5028762;28;20580;-69
2022/09/06 03:16:09;;;;;;;8.00;7.40;;;18.60;99.90;;;;;;5018751;28;20696;-68
2022/09/06 03:18:34;;;;;;;7.70;7.00;;;18.70;99.90;;;;;;5021387;28;20186;-68
2022/09/06 03:21:00;;;;;;;7.50;6.90;;;18.70;99.90;;;;;;5027205;28;20240;-68
2022/09/06 03:23:28;;;;;;;9.90;8.60;;;18.50;99.90;;;;;;5028522;28;20223;-68
2022/09/06 03:25:54;;;;;;;8.63;7.83;;;18.50;99.90;;;;;;5026445;28;20444;-68
2022/09/06 03:28:20;;;;;;;8.27;7.67;;;18.40;99.90;;;;;;5032649;28;20808;-68
2022/09/06 03:30:48;;;;;;;9.40;7.60;;;18.30;99.90;;;;;;5039704;28;20436;-68
2022/09/06 03:33:14;;;;;;;11.40;8.07;;;18.20;99.90;;;;;;5034539;28;20497;-68
2022/09/06 03:35:40;;;;;;;10.97;7.80;;;18.30;99.90;;;;;;5044614;28;20874;-68
2022/09/06 03:38:06;;;;;;;8.10;7.40;;;18.40;99.90;;;;;;5040482;28;20192;-68
2022/09/06 03:40:32;;;;;;;10.13;7.40;;;18.30;99.90;;;;;;5035301;28;20804;-68
2022/09/06 03:42:58;;;;;;;8.50;7.70;;;18.20;99.90;;;;;;5032876;28;20459;-68
2022/09/06 03:45:23;;;;;;;8.90;7.43;;;18.20;99.90;;;;;;5022288;28;20189;-68
2022/09/06 03:47:49;;;;;;;8.40;7.60;;;18.10;99.90;;;;;;5027777;28;20178;-68
2022/09/06 03:50:14;;;;;;;8.03;7.43;;;18.00;99.90;;;;;;5032525;28;20181;-68
2022/09/06 03:52:40;;;;;;;9.00;8.20;;;18.00;99.90;;;;;;5036911;28;20198;-68
2022/09/06 03:55:06;;;;;;;9.73;8.87;;;17.90;99.90;;;;;;5037534;28;20201;-68
2022/09/06 03:57:32;;;;;;;10.27;9.20;;;17.90;99.90;;;;;;5044901;28;20192;-68
2022/09/06 03:59:57;;;;;;;9.73;8.93;;;18.00;99.90;;;;;;5039020;28;20444;-68
2022/09/06 04:02:23;;;;;;;9.20;8.50;;;18.00;99.90;;;;;;5033744;28;20201;-68
2022/09/06 04:04:48;;;;;;;9.77;8.97;;;18.00;99.90;;;;;;5024082;28;20554;-68
2022/09/06 04:07:14;;;;;;;8.90;8.17;;;18.10;99.90;;;;;;5027354;28;20185;-68
2022/09/06 04:09:39;;;;;;;8.60;7.80;;;18.00;99.90;;;;;;5027567;28;20183;-68
2022/09/06 04:12:05;;;;;;;10.33;9.33;;;18.00;99.90;;;;;;5020205;28;20282;-68
2022/09/06 04:14:30;;;;;;;13.07;8.27;;;17.90;99.90;;;;;;5031946;28;20178;-68
2022/09/06 04:16:56;;;;;;;9.10;8.13;;;18.00;99.90;;;;;;5025035;28;20187;-68
2022/09/06 04:19:22;;;;;;;8.90;8.20;;;18.00;99.90;;;;;;5031454;28;20206;-68
2022/09/06 04:21:48;;;;;;;9.63;8.83;;;18.00;99.90;;;;;;5021596;28;20183;-68
2022/09/06 04:24:13;;;;;;;8.70;8.00;;;18.10;99.90;;;;;;5029886;28;21011;-68
2022/09/06 04:26:39;;;;;;;9.43;8.70;;;18.10;99.90;;;;;;5021435;28;20189;-68
2022/09/06 04:29:04;;;;;;;10.00;9.10;;;18.10;99.90;;;;;;5027505;28;20202;-68
2022/09/06 04:31:30;;;;;;;10.17;9.27;;;18.10;99.90;;;;;;5032287;28;20547;-68
2022/09/06 04:33:55;;;;;;;9.93;9.13;;;18.40;99.90;;;;;;5023812;28;20575;-68
2022/09/06 04:36:21;;;;;;;10.03;9.20;;;18.00;99.90;;;;;;5036052;28;20714;-68
2022/09/06 04:38:46;;;;;;;8.70;8.00;;;18.00;99.90;;;;;;5032900;28;20174;-68
2022/09/06 04:41:14;;;;;;;9.80;8.80;;;18.00;99.90;;;;;;5041850;28;20525;-68
2022/09/06 04:43:40;;;;;;;9.90;7.80;;;18.00;99.90;;;;;;5036878;28;20197;-68
2022/09/06 04:46:13;;;;;;;10.43;9.60;;;18.00;99.90;;;;;;5025840;28;20802;-68
2022/09/06 04:48:39;;;;;;;10.17;8.50;;;18.00;99.90;;;;;;5035848;28;20436;-68
2022/09/06 04:51:05;;;;;;;12.73;9.37;;;18.10;99.90;;;;;;5037397;28;20849;-68
2022/09/06 04:53:30;;;;;;;9.03;8.17;;;18.10;99.90;;;;;;5025948;28;20203;-68
2022/09/06 04:55:57;;;;;;;9.53;8.80;;;18.00;99.90;;;;;;5019565;28;20190;-68
2022/09/06 04:58:23;;;;;;;9.43;7.60;;;18.00;99.90;;;;;;5022285;28;20236;-72
2022/09/06 05:00:48;;;;;;;9.13;8.40;;;18.00;99.90;;;;;;5022464;28;20520;-72
2022/09/06 05:03:14;;;;;;;10.53;8.50;;;18.00;99.90;;;;;;5027427;28;20786;-73
2022/09/06 05:05:39;;;;;;;9.87;8.57;;;17.90;99.90;;;;;;5024844;28;20205;-71
2022/09/06 05:08:05;;;;;;;10.70;9.70;;;17.80;99.90;;;;;;5029433;28;20256;-64
2022/09/06 05:10:30;;;;;;;11.60;9.30;;;17.70;99.90;;;;;;5021274;28;20737;-65
2022/09/06 05:12:56;;;;;;;10.43;9.47;;;17.80;99.90;;;;;;5022100;28;20269;-66
2022/09/06 05:15:22;;;;;;;9.73;8.80;;;17.80;99.90;;;;;;5026879;28;20513;-66
2022/09/06 05:17:48;;;;;;;9.97;9.07;;;17.80;99.90;;;;;;5032593;28;20182;-67
2022/09/06 05:20:14;;;;;;;13.10;8.97;;;17.80;99.90;;;;;;5027355;28;20951;-66
2022/09/06 05:22:40;;;;;;;9.67;8.80;;;17.90;99.90;;;;;;5032005;28;20248;-66
2022/09/06 05:25:07;;;;;;;10.73;9.73;;;17.90;99.90;;;;;;5027196;28;20840;-65
2022/09/06 05:27:33;;;;;;;9.10;8.30;;;18.00;99.90;;;;;;5023342;28;20236;-66
2022/09/06 05:29:59;;;;;;;9.53;8.50;;;18.10;99.90;;;;;;5031241;28;20429;-68
2022/09/06 05:32:24;;;;;;;10.90;7.97;;;18.10;99.90;;;;;;5024129;28;20203;-66
2022/09/06 05:34:50;;;;;;;10.10;9.13;;;18.20;99.90;;;;;;5021451;28;20185;-66
2022/09/06 05:37:15;;;;;;;11.20;7.93;;;18.20;99.90;;;;;;5040808;28;20236;-65
2022/09/06 05:39:41;;;;;;;9.20;8.43;;;18.10;99.90;;;;;;5032001;28;20178;-65
2022/09/06 05:42:06;;;;;;;10.17;9.27;;;18.10;99.90;;;;;;5032444;28;20178;-66
2022/09/06 05:44:36;;;;;;;11.07;10.03;;;18.20;99.90;;;;;;5032531;28;20511;-66
2022/09/06 05:47:02;;;;;;;8.63;7.80;;;18.30;99.90;;;;;;5031655;28;20265;-66
2022/09/06 05:49:29;;;;;;;10.27;9.27;;;18.30;99.90;;;;;;5031882;28;20452;-65
2022/09/06 05:51:55;;;;;;;8.83;8.03;;;18.30;99.90;;;;;;5032394;28;20417;-66
2022/09/06 05:54:20;;;;;;;10.27;9.47;;;18.40;99.90;;;;;;5032452;28;20425;-66
2022/09/06 05:56:46;;;;;;;10.70;9.70;;;18.50;99.90;;;;;;5032293;28;20189;-66
2022/09/06 05:59:11;;;;;;;14.33;13.03;;;18.50;99.90;;;;;;5031705;28;20178;-66
2022/09/06 06:01:47;;;;;;;12.00;10.23;;;18.60;99.90;;;;;;5032269;28;20184;-65
2022/09/06 06:04:12;;;;;;;9.60;8.67;;;18.50;99.90;;;;;;5032168;28;20216;-66
2022/09/06 06:06:38;;;;;;;9.93;8.60;;;18.50;99.90;;;;;;5032287;28;20417;-66
2022/09/06 06:09:03;;;;;;;9.30;8.50;;;18.50;99.90;;;;;;5031552;28;20177;-66
2022/09/06 06:11:30;;;;;;;9.83;8.93;;;18.50;99.90;;;;;;5032142;28;20177;-66
2022/09/06 06:13:55;;;;;;;9.00;8.13;;;18.50;99.90;;;;;;5032085;28;20209;-66
2022/09/06 06:16:22;;;;;;;9.40;8.50;;;18.60;99.90;;;;;;5032396;28;20417;-66
2022/09/06 06:18:48;;;;;;;10.40;9.40;;;18.80;99.90;;;;;;5031512;28;20171;-66
2022/09/06 06:21:24;;;;;;;10.57;9.60;;;18.90;99.90;;;;;;5031269;28;21034;-65
2022/09/06 06:23:52;;;;;;;12.93;9.20;;;18.80;99.90;;;;;;5031754;28;20456;-66
2022/09/06 06:26:18;;;;;;;15.00;12.20;;;18.90;99.90;;;;;;5032702;28;20762;-66
2022/09/06 06:28:44;;;;;;;12.27;10.13;;;19.00;99.90;;;;;;5031894;28;20425;-66
2022/09/06 06:31:11;;;;;;;9.97;8.70;;;18.90;99.90;;;;;;5037181;28;20484;-66
2022/09/06 06:33:38;;;;;;;9.63;8.83;;;19.00;99.90;;;;;;5036690;28;20202;-66
2022/09/06 06:36:17;;;;;;;10.60;9.70;;;18.90;99.90;;;;;;5039197;28;20902;-66
2022/09/06 06:38:45;;;;;;;12.60;10.87;;;18.90;99.90;;;;;;5041575;28;20427;-66
2022/09/06 06:41:12;;;;;;;10.03;9.13;;;18.80;99.90;;;;;;5037910;28;20520;-66
2022/09/06 06:43:38;;;;;;;10.73;9.83;;;18.80;99.90;;;;;;5043581;28;20836;-66
2022/09/06 06:46:12;;;;;;;12.90;11.80;;;18.90;99.90;;;;;;5042112;28;20432;-66
2022/09/06 06:48:40;;;;;;;12.30;11.03;;;19.00;99.90;;;;;;5039742;28;20236;-66
2022/09/06 06:51:06;;;;;;;12.10;9.47;;;19.20;99.90;;;;;;5035854;28;20447;-65
2022/09/06 06:53:31;;;;;;;9.10;8.20;;;19.50;99.90;;;;;;5032016;28;20472;-66
2022/09/06 06:55:58;;;;;;;8.67;7.97;;;19.70;99.90;;;;;;5031934;28;20421;-66
2022/09/06 06:58:23;;;;;;;7.87;7.17;;;20.00;99.90;;;;;;5031150;28;20174;-65
2022/09/06 07:00:49;;;;;;;7.90;7.30;;;20.10;99.90;;;;;;5030554;28;20432;-66
2022/09/06 07:03:15;;;;;;;8.20;7.50;;;20.30;99.90;;;;;;5031590;28;21292;-66
2022/09/06 07:05:45;;;;;;;9.20;8.40;;;20.60;99.90;;;;;;5031711;28;20272;-66
2022/09/06 07:08:11;;;;;;;7.13;6.40;;;20.80;99.90;;;;;;5031224;28;20178;-66
2022/09/06 07:10:37;;;;;;;6.70;6.10;;;20.80;99.90;;;;;;5031382;28;20417;-65
2022/09/06 07:13:03;;;;;;;7.30;6.70;;;20.70;99.90;;;;;;5031384;28;20560;-66
2022/09/06 07:15:29;;;;;;;6.77;6.07;;;20.80;99.90;;;;;;5031453;28;20243;-65
2022/09/06 07:17:56;;;;;;;6.80;6.17;;;21.10;99.90;;;;;;5031372;28;20507;-66
2022/09/06 07:20:22;;;;;;;6.27;5.67;;;21.20;99.90;;;;;;5030846;28;20266;-66
2022/09/06 07:22:58;;;;;;;8.03;5.67;;;21.30;99.90;;;;;;5031298;28;20457;-65
2022/09/06 07:25:24;;;;;;;6.37;5.87;;;21.40;99.90;;;;;;5031502;28;20417;-65
2022/09/06 07:28:00;;;;;;;5.60;5.20;;;21.40;99.90;;;;;;5031389;28;20902;-65
2022/09/06 07:30:27;;;;;;;5.83;5.30;;;21.40;99.90;;;;;;5030638;28;20416;-66
2022/09/06 07:32:52;;;;;;;6.17;5.57;;;21.20;99.90;;;;;;5031241;28;20462;-66
2022/09/06 07:35:19;;;;;;;5.60;5.20;;;21.30;99.90;;;;;;5031452;28;20429;-66
2022/09/06 07:37:54;;;;;;;7.23;5.87;;;21.30;99.90;;;;;;5034975;28;20639;-66
2022/09/06 07:40:20;;;;;;;6.37;5.90;;;21.20;99.90;;;;;;5034222;28;20924;-66
2022/09/06 07:42:45;;;;;;;5.77;5.37;;;21.30;99.90;;;;;;5034724;28;20464;-66
2022/09/06 07:45:11;;;;;;;6.27;5.77;;;21.30;99.90;;;;;;5033616;28;20192;-66
2022/09/06 07:47:37;;;;;;;6.83;6.23;;;21.60;99.90;;;;;;5033319;28;20177;-66
2022/09/06 07:50:03;;;;;;;5.20;4.80;;;21.80;99.90;;;;;;5034031;28;20171;-66
2022/09/06 07:52:28;;;;;;;6.40;5.80;;;22.00;99.90;;;;;;5034508;28;20205;-65
2022/09/06 07:54:55;;;;;;;5.67;5.17;;;22.20;99.90;;;;;;5034890;28;20428;-65
2022/09/06 07:57:24;;;;;;;6.10;5.60;;;22.40;99.90;;;;;;5034634;28;20170;-65
2022/09/06 07:59:50;;;;;;;9.53;5.30;;;22.50;99.90;;;;;;5033798;28;20417;-65
2022/09/06 08:02:16;;;;;;;5.93;5.23;;;22.70;99.90;;;;;;5034449;28;20808;-65
2022/09/06 08:04:42;;;;;;;5.70;5.20;;;23.00;99.90;;;;;;5034509;28;20421;-65
2022/09/06 08:07:08;;;;;;;6.50;5.80;;;23.20;99.90;;;;;;5034334;28;20929;-65
2022/09/06 08:09:34;;;;;;;6.43;5.80;;;23.30;99.90;;;;;;5033686;28;20174;-65
2022/09/06 08:12:05;;;;;;;10.20;5.27;;;23.40;99.90;;;;;;5034224;28;20582;-65
2022/09/06 08:14:31;;;;;;;5.50;5.00;;;23.30;99.90;;;;;;5034485;28;20170;-65
2022/09/06 08:16:56;;;;;;;7.23;6.07;;;23.40;99.90;;;;;;5034419;28;20428;-65
2022/09/06 08:19:22;;;;;;;7.67;5.50;;;23.40;99.90;;;;;;5032375;28;20424;-65
2022/09/06 08:21:48;;;;;;;6.13;5.63;;;23.40;99.90;;;;;;5034107;28;20178;-65
2022/09/06 08:24:14;;;;;;;6.37;5.97;;;23.50;99.90;;;;;;5034066;28;20201;-65
2022/09/06 08:26:41;;;;;;;5.37;4.97;;;23.60;99.90;;;;;;5034281;28;20440;-65
2022/09/06 08:29:07;;;;;;;6.00;5.40;;;23.90;99.90;;;;;;5033457;28;20169;-65
2022/09/06 08:31:39;;;;;;;6.03;5.60;;;24.10;99.90;;;;;;5034077;28;20479;-66
2022/09/06 08:34:05;;;;;;;6.20;5.63;;;24.20;99.90;;;;;;5033954;28;20448;-65
2022/09/06 08:36:31;;;;;;;6.50;5.90;;;24.60;99.90;;;;;;5033870;28;20432;-65
2022/09/06 08:38:58;;;;;;;5.20;4.80;;;24.70;99.90;;;;;;5033161;28;20416;-65
2022/09/06 08:41:42;;;;;;;6.57;5.97;;;24.90;99.90;;;;;;5033844;28;20421;-65
2022/09/06 08:44:12;;;;;;;6.00;5.60;;;24.90;99.90;;;;;;5033729;28;20547;-65
2022/09/06 08:46:39;;;;;;;5.00;4.70;;;24.80;99.90;;;;;;5033610;28;20420;-65
2022/09/06 08:49:06;;;;;;;5.70;5.00;;;25.00;99.90;;;;;;5033173;28;20417;-65
2022/09/06 08:51:50;;;;;;;5.00;4.53;;;24.90;99.90;;;;;;5033661;28;20425;-65
2022/09/06 08:54:35;;;;;;;6.07;5.57;;;25.10;99.90;;;;;;5033495;28;20436;-65
2022/09/06 08:57:30;;;;;;;5.43;4.93;;;25.50;99.90;;;;;;5033399;28;20417;-65
2022/09/06 09:00:00;;;;;;;10.80;5.53;;;25.60;99.90;;;;;;5032755;28;20945;-65
2022/09/06 09:02:32;;;;;;;6.10;5.50;;;26.20;99.90;;;;;;5034495;28;20934;-66
2022/09/06 09:05:01;;;;;;;6.40;5.50;;;26.50;99.90;;;;;;5033500;28;20486;-67
2022/09/06 09:07:37;;;;;;;6.43;5.90;;;27.00;99.90;;;;;;5033205;28;21159;-67
2022/09/06 09:10:10;;;;;;;6.83;4.50;;;27.50;99.90;;;;;;5032661;28;20420;-67
2022/09/06 09:12:41;;;;;;;8.57;5.70;;;27.90;99.90;;;;;;5031873;28;20506;-66
2022/09/06 09:15:11;;;;;;;5.17;4.40;;;28.40;99.90;;;;;;5033175;28;20420;-67
2022/09/06 09:17:37;;;;;;;5.67;5.13;;;28.90;99.90;;;;;;5033207;28;20419;-67
2022/09/06 09:20:04;;;;;;;6.30;5.70;;;29.30;99.90;;;;;;5032315;28;20417;-66
2022/09/06 09:22:30;;;;;;;5.00;4.23;;;29.20;99.90;;;;;;5032911;28;20695;-64
2022/09/06 09:24:57;;;;;;;6.83;4.67;;;29.40;99.90;;;;;;5033203;28;20424;-64
2022/09/06 09:27:26;;;;;;;7.30;6.60;;;28.90;99.90;;;;;;5032949;28;20168;-64
2022/09/06 09:29:54;;;;;;;9.97;5.47;;;28.50;99.90;;;;;;5032242;28;20425;-64
2022/09/06 09:32:39;;;;;;;8.97;5.30;;;27.70;99.90;;;;;;5032847;28;20433;-64
2022/09/06 09:35:29;;;;;;;5.57;4.77;;;27.20;99.90;;;;;;5032842;28;20451;-64
2022/09/06 09:38:10;;;;;;;12.23;4.73;;;27.70;99.90;;;;;;5032715;28;20632;-64
2022/09/06 09:40:47;;;;;;;5.40;4.90;;;28.50;99.90;;;;;;5032427;28;20563;-64
2022/09/06 09:43:21;;;;;;;7.93;4.93;;;29.30;99.90;;;;;;5032677;28;20483;-64
2022/09/06 09:46:28;;;;;;;5.80;4.90;;;30.70;99.90;;;;;;5032726;28;20441;-65
2022/09/06 09:49:05;;;;;;;5.43;4.90;;;31.70;98.80;;;;;;5031912;28;20454;-64
2022/09/06 09:51:43;;;;;;;5.47;4.93;;;31.50;97.50;;;;;;5031528;28;20819;-64
2022/09/06 09:54:11;;;;;;;5.73;5.00;;;31.50;97.30;;;;;;5032582;28;20535;-64
2022/09/06 09:56:42;;;;;;;6.93;4.77;;;32.10;96.50;;;;;;5032512;28;20420;-65
2022/09/06 09:59:21;;;;;;;10.00;5.30;;;32.30;95.20;;;;;;5031356;28;20508;-65
2022/09/06 10:01:48;;;;;;;7.03;4.93;;;32.70;93.80;;;;;;5032368;28;20993;-65
2022/09/06 10:04:27;;;;;;;5.20;4.30;;;33.70;92.80;;;;;;5032202;28;21044;-65
2022/09/06 10:06:52;;;;;;;4.63;4.10;;;35.00;90.30;;;;;;5032245;28;20910;-65
2022/09/06 10:09:32;;;;;;;5.80;3.70;;;35.00;84.60;;;;;;5030193;28;20432;-64
2022/09/06 10:11:58;;;;;;;5.00;4.30;;;35.20;82.90;;;;;;5031973;28;20709;-65
2022/09/06 10:14:42;;;;;;;5.33;4.23;;;35.40;81.00;;;;;;5070962;22;20486;-66
2022/09/06 10:17:16;;;;;;;4.63;4.23;;;34.40;80.00;;;;;;5048295;28;20748;-66
2022/09/06 10:19:44;;;;;;;13.33;5.00;;;32.90;83.60;;;;;;5051657;28;20426;-66
2022/09/06 10:22:27;;;;;;;5.73;5.20;;;32.80;85.70;;;;;;5052109;28;20424;-66
2022/09/06 10:24:55;;;;;;;4.73;4.27;;;33.60;83.80;;;;;;5032197;28;20429;-66
2022/09/06 10:27:27;;;;;;;6.47;5.20;;;34.50;81.70;;;;;;5032123;28;20413;-66
2022/09/06 10:30:07;;;;;;;4.70;4.30;;;35.00;78.70;;;;;;5030072;28;20421;-66
2022/09/06 10:32:54;;;;;;;4.90;4.60;;;35.00;78.70;;;;;;5032142;28;20490;-66
2022/09/06 10:35:24;;;;;;;7.23;4.90;;;34.50;78.30;;;;;;5031930;28;20866;-66
2022/09/06 10:38:12;;;;;;;5.53;4.60;;;33.10;80.50;;;;;;5032021;28;20477;-66
2022/09/06 10:41:03;;;;;;;5.97;4.57;;;33.20;81.60;;;;;;5032039;28;20510;-65
2022/09/06 10:43:45;;;;;;;6.37;5.03;;;32.00;84.10;;;;;;5031920;28;20463;-65
2022/09/06 10:46:14;;;;;;;5.20;4.80;;;30.70;89.20;;;;;;5031945;28;20421;-66
2022/09/06 10:48:43;;;;;;;6.90;4.47;;;29.90;91.40;;;;;;5031199;28;20856;-65
2022/09/06 10:51:48;;;;;;;10.23;5.20;;;29.70;92.10;;;;;;5031990;28;20838;-65
2022/09/06 10:54:18;;;;;;;5.20;4.77;;;29.50;92.20;;;;;;5019428;28;20950;-65
2022/09/06 10:56:57;;;;;;;7.87;5.13;;;29.40;92.30;;;;;;5032001;28;20515;-65
2022/09/06 10:59:38;;;;;;;6.33;4.70;;;29.40;92.20;;;;;;5031129;28;20413;-65
2022/09/06 11:02:22;;;;;;;7.63;5.40;;;30.00;92.40;;;;;;5031867;28;20507;-65
2022/09/06 11:04:52;;;;;;;7.43;5.30;;;30.40;92.80;;;;;;5031646;28;20792;-65
2022/09/06 11:07:33;;;;;;;5.93;5.30;;;30.30;93.40;;;;;;5031785;28;20848;-65
2022/09/06 11:10:01;;;;;;;11.13;5.60;;;30.20;93.40;;;;;;5031345;28;20941;-65
2022/09/06 11:12:48;;;;;;;6.00;5.20;;;30.10;93.90;;;;;;5034897;28;20475;-65
2022/09/06 11:15:16;;;;;;;7.20;5.20;;;29.40;94.80;;;;;;5035472;28;20432;-65
2022/09/06 11:17:57;;;;;;;6.97;6.23;;;29.20;95.80;;;;;;5035547;28;20452;-65
2022/09/06 11:20:36;;;;;;;8.40;5.97;;;29.20;96.70;;;;;;5033732;28;20425;-65
2022/09/06 11:23:39;;;;;;;10.00;5.33;;;29.80;96.00;;;;;;5035311;28;21014;-65
2022/09/06 11:26:29;;;;;;;8.87;5.40;;;30.90;94.50;;;;;;5035464;28;20416;-66
2022/09/06 11:29:00;;;;;;;7.73;4.43;;;31.90;92.50;;;;;;5034725;28;20828;-66
2022/09/06 11:31:32;;;;;;;7.87;4.63;;;32.40;91.70;;;;;;5035326;28;20508;-66
2022/09/06 11:34:10;;;;;;;7.83;5.20;;;33.30;89.80;;;;;;5035204;28;20447;-66
2022/09/06 11:36:46;;;;;;;6.60;5.23;;;33.20;89.00;;;;;;5035286;28;20508;-65
2022/09/06 11:39:13;;;;;;;9.03;5.90;;;32.80;89.40;;;;;;5034490;28;20416;-66
2022/09/06 11:41:40;;;;;;;6.40;5.47;;;33.30;88.50;;;;;;5035169;28;20413;-66
2022/09/06 11:44:08;;;;;;;6.40;5.27;;;34.70;85.90;;;;;;5034728;28;20468;-66
2022/09/06 11:46:34;;;;;;;6.27;5.13;;;36.50;72.10;;;;;;5033631;28;20754;-66
2022/09/06 11:49:07;;;;;;;5.80;4.80;;;35.80;69.30;;;;;;5034212;28;20420;-66
2022/09/06 11:51:38;;;;;;;6.53;4.10;;;35.70;68.70;;;;;;5034996;28;20166;-66
2022/09/06 11:54:20;;;;;;;5.40;4.63;;;36.20;67.70;;;;;;5034846;28;20447;-66
2022/09/06 11:56:46;;;;;;;7.60;4.73;;;36.40;65.60;;;;;;5034894;28;20455;-66
2022/09/06 11:59:17;;;;;;;7.77;4.23;;;36.30;64.30;;;;;;5034018;28;20436;-66
2022/09/06 12:02:26;;;;;;;10.07;4.83;;;38.40;71.30;;;;;;5034827;28;20217;-66
2022/09/06 12:04:57;;;;;;;8.33;5.10;;;37.70;70.40;;;;;;5034603;28;20793;-66
2022/09/06 12:07:23;;;;;;;5.73;4.17;;;37.60;69.80;;;;;;5034628;28;20908;-66
2022/09/06 12:09:49;;;;;;;11.10;4.83;;;38.10;68.80;;;;;;5033896;28;20429;-66
2022/09/06 12:12:39;;;;;;;4.20;3.80;;;39.00;65.60;;;;;;5034707;28;20424;-66
2022/09/06 12:15:25;;;;;;;5.20;4.70;;;40.50;61.20;;;;;;5034604;28;20432;-66
2022/09/06 12:17:51;;;;;;;5.23;4.33;;;42.30;58.40;;;;;;5034504;28;20409;-66
2022/09/06 12:20:47;;;;;;;6.33;4.63;;;42.70;56.40;;;;;;5033714;28;20831;-66
2022/09/06 12:23:35;;;;;;;7.83;4.53;;;40.00;57.30;;;;;;5033873;28;20464;-66
2022/09/06 12:26:03;;;;;;;10.77;4.37;;;40.80;57.30;;;;;;5034316;28;20423;-66
2022/09/06 12:28:37;;;;;;;4.90;4.47;;;42.10;54.30;;;;;;5033657;28;20431;-66
2022/09/06 12:31:37;;;;;;;5.27;4.00;;;41.80;53.50;;;;;;5034265;28;20412;-66
2022/09/06 12:34:10;;;;;;;6.07;4.23;;;42.80;51.40;;;;;;5034038;28;20440;-66
2022/09/06 12:36:48;;;;;;;9.43;4.50;;;44.20;50.90;;;;;;5033978;28;20531;-66
2022/09/06 12:39:13;;;;;;;5.57;3.87;;;45.10;48.00;;;;;;5033398;28;20459;-66
2022/09/06 12:41:42;;;;;;;6.50;4.43;;;42.40;49.30;;;;;;5033990;28;20444;-66
2022/09/06 12:44:09;;;;;;;4.70;4.13;;;40.20;51.10;;;;;;5033890;28;20218;-66
2022/09/06 12:46:35;;;;;;;5.33;4.83;;;38.20;52.90;;;;;;5032574;28;20819;-66
2022/09/06 12:49:07;;;;;;;9.20;5.13;;;38.00;54.70;;;;;;5033177;28;20421;-66
2022/09/06 12:51:35;;;;;;;4.63;3.43;;;39.40;52.30;;;;;;5033854;28;20424;-66
2022/09/06 12:54:16;;;;;;;7.53;4.60;;;38.90;51.50;;;;;;5033616;28;20976;-66
2022/09/06 12:56:41;;;;;;;5.90;3.93;;;38.10;51.80;;;;;;5033674;28;20519;-66
2022/09/06 12:59:26;;;;;;;4.67;4.23;;;37.10;54.00;;;;;;5033136;28;20456;-66
2022/09/06 13:01:56;;;;;;;5.23;4.73;;;36.00;56.60;;;;;;5033705;28;20171;-66
2022/09/06 13:04:39;;;;;;;7.20;5.57;;;34.70;59.10;;;;;;5033541;28;20491;-65